createdAt,value
2018-12-03T00:00:27.225Z,192.87
2018-12-03T00:03:00.959Z,198.53
2018-12-03T00:05:28.912Z,207.83
2018-12-03T00:07:56.840Z,203.07
2018-12-03T00:10:24.871Z,207.30
2018-12-03T00:15:27.885Z,203.10
2018-12-03T00:17:55.805Z,208.27
2018-12-03T00:20:23.768Z,204.93
2018-12-03T00:22:51.763Z,198.17
2018-12-03T00:25:19.896Z,189.67
2018-12-03T00:27:52.030Z,196.37
2018-12-03T00:30:20.383Z,183.10
2018-12-03T00:32:48.466Z,193.53
2018-12-03T00:35:16.892Z,184.90
2018-12-03T00:37:44.850Z,187.73
2018-12-03T00:40:12.776Z,178.03
2018-12-03T00:42:40.750Z,176.37
2018-12-03T00:45:08.682Z,179.30
2018-12-03T00:47:36.719Z,179.00
2018-12-03T00:50:05.171Z,169.87
2018-12-03T00:52:33.109Z,195.23
2018-12-03T00:55:01.111Z,188.10
2018-12-03T00:57:29.020Z,184.70
2018-12-03T00:59:57.011Z,180.13
2018-12-03T01:02:25.846Z,188.10
2018-12-03T01:04:54.233Z,175.07
2018-12-03T01:07:22.310Z,177.23
2018-12-03T01:09:50.362Z,170.83
2018-12-03T01:12:18.313Z,167.87
2018-12-03T01:14:46.457Z,175.40
2018-12-03T01:17:14.472Z,177.37
2018-12-03T01:19:42.444Z,167.97
2018-12-03T01:22:14.403Z,170.60
2018-12-03T01:24:43.691Z,169.33
2018-12-03T01:27:14.077Z,164.80
2018-12-03T01:29:42.127Z,168.77
2018-12-03T01:32:10.091Z,164.07
2018-12-03T01:34:38.012Z,163.93
2018-12-03T01:37:05.962Z,172.43
2018-12-03T01:39:33.926Z,167.43
2018-12-03T01:42:01.872Z,160.77
2018-12-03T01:44:29.809Z,170.57
2018-12-03T01:46:57.846Z,178.43
2018-12-03T01:49:25.853Z,160.30
2018-12-03T01:51:53.769Z,165.70
2018-12-03T01:54:22.022Z,170.63
2018-12-03T01:56:50.034Z,164.47
2018-12-03T01:59:17.916Z,161.33
2018-12-03T02:01:45.985Z,159.97
2018-12-03T02:04:14.135Z,158.93
2018-12-03T02:06:42.123Z,161.83
2018-12-03T02:09:10.376Z,162.57
2018-12-03T02:11:38.419Z,176.80
2018-12-03T02:14:06.639Z,159.97
2018-12-03T02:16:34.543Z,163.80
2018-12-03T02:19:02.630Z,191.30
2018-12-03T02:21:30.683Z,163.57
2018-12-03T02:23:58.591Z,171.13
2018-12-03T02:26:26.757Z,170.20
2018-12-03T02:28:55.378Z,165.67
2018-12-03T02:31:23.299Z,170.50
2018-12-03T02:33:51.821Z,186.27
2018-12-03T02:36:19.726Z,170.13
2018-12-03T02:38:47.737Z,169.47
2018-12-03T02:41:16.023Z,166.17
2018-12-03T02:43:43.934Z,173.67
2018-12-03T02:46:11.879Z,163.13
2018-12-03T02:48:39.870Z,175.07
2018-12-03T02:51:07.766Z,164.83
2018-12-03T02:53:35.709Z,171.53
2018-12-03T02:56:04.409Z,157.33
2018-12-03T02:58:32.327Z,169.77
2018-12-03T03:01:01.613Z,163.90
2018-12-03T03:03:29.796Z,177.30
2018-12-03T03:05:57.779Z,161.73
2018-12-03T03:08:28.779Z,178.70
2018-12-03T03:10:56.801Z,163.80
2018-12-03T03:13:24.799Z,171.70
2018-12-03T03:15:52.796Z,158.53
2018-12-03T03:18:20.698Z,172.83
2018-12-03T03:20:48.710Z,158.47
2018-12-03T03:23:16.680Z,168.23
2018-12-03T03:25:44.723Z,161.20
2018-12-03T03:28:12.691Z,178.00
2018-12-03T03:30:40.638Z,167.53
2018-12-03T03:33:08.670Z,171.93
2018-12-03T03:35:36.682Z,158.53
2018-12-03T03:38:04.767Z,165.57
2018-12-03T03:40:32.897Z,159.90
2018-12-03T03:43:01.160Z,171.57
2018-12-03T03:45:29.098Z,159.33
2018-12-03T03:47:57.075Z,160.27
2018-12-03T03:50:25.362Z,151.90
2018-12-03T03:52:53.346Z,163.30
2018-12-03T03:55:21.268Z,161.13
2018-12-03T03:57:49.535Z,160.40
2018-12-03T04:00:17.536Z,159.83
2018-12-03T04:02:47.989Z,165.13
2018-12-03T04:05:15.975Z,158.07
2018-12-03T04:07:45.218Z,151.40
2018-12-03T04:10:14.039Z,163.57
2018-12-03T04:12:43.419Z,150.47
2018-12-03T04:15:12.713Z,154.10
2018-12-03T04:17:40.671Z,149.83
2018-12-03T04:20:14.567Z,151.30
2018-12-03T04:22:44.808Z,154.60
2018-12-03T04:25:13.075Z,155.90
2018-12-03T04:27:41.092Z,152.90
2018-12-03T04:30:20.524Z,148.37
2018-12-03T04:32:48.735Z,155.23
2018-12-03T04:35:16.787Z,162.27
2018-12-03T04:37:44.947Z,159.43
2018-12-03T04:40:14.638Z,154.63
2018-12-03T04:42:42.728Z,150.03
2018-12-03T04:45:17.157Z,152.00
2018-12-03T04:47:46.303Z,150.67
2018-12-03T04:50:15.940Z,158.13
2018-12-03T04:52:44.031Z,154.23
2018-12-03T04:55:13.552Z,153.03
2018-12-03T04:57:41.620Z,164.57
2018-12-03T05:00:14.007Z,147.70
2018-12-03T05:02:42.522Z,152.63
2018-12-03T05:05:10.861Z,152.93
2018-12-03T05:07:39.732Z,153.17
2018-12-03T05:10:11.630Z,148.93
2018-12-03T05:12:39.619Z,147.37
2018-12-03T05:15:10.320Z,147.77
2018-12-03T05:17:38.551Z,154.90
2018-12-03T05:20:09.551Z,149.10
2018-12-03T05:22:37.892Z,148.57
2018-12-03T05:25:10.420Z,150.00
2018-12-03T05:27:38.525Z,154.33
2018-12-03T05:30:12.536Z,159.13
2018-12-03T05:32:41.291Z,153.20
2018-12-03T05:35:13.458Z,149.47
2018-12-03T05:37:41.459Z,166.53
2018-12-03T05:40:22.548Z,156.03
2018-12-03T05:42:50.511Z,166.07
2018-12-03T05:45:18.423Z,153.17
2018-12-03T05:47:46.459Z,156.93
2018-12-03T05:50:15.426Z,154.93
2018-12-03T05:52:45.031Z,151.57
2018-12-03T05:55:13.447Z,155.97
2018-12-03T05:57:42.014Z,154.20
2018-12-03T06:00:14.832Z,167.40
2018-12-03T06:02:42.770Z,163.77
2018-12-03T06:05:11.852Z,160.60
2018-12-03T06:07:43.607Z,158.43
2018-12-03T06:10:14.321Z,159.80
2018-12-03T06:12:42.307Z,163.10
2018-12-03T06:15:12.631Z,164.87
2018-12-03T06:17:40.679Z,157.70
2018-12-03T06:20:17.078Z,159.90
2018-12-03T06:22:45.642Z,157.90
2018-12-03T06:25:15.323Z,165.20
2018-12-03T06:27:43.242Z,156.33
2018-12-03T06:30:17.443Z,156.67
2018-12-03T06:32:45.399Z,157.07
2018-12-03T06:35:14.435Z,163.70
2018-12-03T06:37:42.924Z,158.10
2018-12-03T06:40:14.746Z,157.77
2018-12-03T06:42:46.699Z,163.33
2018-12-03T06:45:17.497Z,159.07
2018-12-03T06:47:57.280Z,155.90
2018-12-03T06:50:25.819Z,158.97
2018-12-03T06:52:53.827Z,159.97
2018-12-03T06:55:21.759Z,157.60
2018-12-03T06:57:49.674Z,163.27
2018-12-03T07:00:19.485Z,158.60
2018-12-03T07:02:47.446Z,158.53
2018-12-03T07:05:15.384Z,156.63
2018-12-03T07:07:45.129Z,160.63
2018-12-03T07:10:15.649Z,167.57
2018-12-03T07:12:44.476Z,162.53
2018-12-03T07:15:15.258Z,161.63
2018-12-03T07:17:45.718Z,157.57
2018-12-03T07:20:13.958Z,159.57
2018-12-03T07:22:41.944Z,162.20
2018-12-03T07:25:12.579Z,164.73
2018-12-03T07:27:40.583Z,158.60
2018-12-03T07:30:17.200Z,167.20
2018-12-03T07:32:47.214Z,155.43
2018-12-03T07:35:14.640Z,160.83
2018-12-03T07:37:43.674Z,153.43
2018-12-03T07:40:12.180Z,164.20
2018-12-03T07:42:41.322Z,153.27
2018-12-03T07:45:11.422Z,153.67
2018-12-03T07:47:39.546Z,159.53
2018-12-03T07:50:10.947Z,151.10
2018-12-03T07:52:39.119Z,179.67
2018-12-03T07:55:13.293Z,152.37
2018-12-03T07:57:44.346Z,158.57
2018-12-03T08:00:19.177Z,153.93
2018-12-03T08:02:47.123Z,162.53
2018-12-03T08:05:15.622Z,163.00
2018-12-03T08:07:43.875Z,153.60
2018-12-03T08:10:15.479Z,159.10
2018-12-03T08:12:44.121Z,160.40
2018-12-03T08:15:13.963Z,162.73
2018-12-03T08:17:45.832Z,155.40
2018-12-03T08:20:16.312Z,164.80
2018-12-03T08:22:45.208Z,155.47
2018-12-03T08:25:13.111Z,154.90
2018-12-03T08:27:41.024Z,150.50
2018-12-03T08:30:11.430Z,158.00
2018-12-03T08:32:39.351Z,158.13
2018-12-03T08:35:15.906Z,159.57
2018-12-03T08:37:43.900Z,168.83
2018-12-03T08:40:15.797Z,166.20
2018-12-03T08:42:48.997Z,156.63
2018-12-03T08:45:18.472Z,150.17
2018-12-03T08:47:47.039Z,156.13
2018-12-03T08:50:22.224Z,152.50
2018-12-03T08:55:24.784Z,159.30
2018-12-03T08:57:53.022Z,152.53
2018-12-03T09:00:29.253Z,156.40
2018-12-03T09:03:03.963Z,152.90
2018-12-03T09:05:33.975Z,154.80
2018-12-03T09:08:08.110Z,161.07
2018-12-03T09:10:36.539Z,162.63
2018-12-03T09:13:16.761Z,160.73
2018-12-03T09:15:52.647Z,160.37
2018-12-03T09:18:20.683Z,162.60
2018-12-03T09:20:48.751Z,157.07
2018-12-03T09:23:16.839Z,163.17
2018-12-03T09:25:46.243Z,157.77
2018-12-03T09:28:14.316Z,174.33
2018-12-03T09:30:42.259Z,163.10
2018-12-03T09:33:10.135Z,170.40
2018-12-03T09:35:38.092Z,159.63
2018-12-03T09:38:06.926Z,160.37
2018-12-03T09:40:34.804Z,159.50
2018-12-03T09:43:02.806Z,163.33
2018-12-03T09:45:30.931Z,156.73
2018-12-03T09:47:58.830Z,152.80
2018-12-03T09:50:27.975Z,160.83
2018-12-03T09:52:56.415Z,171.30
2018-12-03T09:55:26.215Z,182.17
2018-12-03T09:58:07.665Z,172.97
2018-12-03T10:00:35.643Z,173.70
2018-12-03T10:03:14.905Z,183.70
2018-12-03T10:05:51.097Z,186.20
2018-12-03T10:08:27.343Z,178.53
2018-12-03T10:10:58.944Z,178.70
2018-12-03T10:13:28.137Z,179.13
2018-12-03T10:15:56.377Z,166.20
2018-12-03T10:18:24.401Z,182.47
2018-12-03T10:20:54.801Z,166.47
2018-12-03T10:23:22.902Z,177.97
2018-12-03T10:25:54.417Z,165.73
2018-12-03T10:28:22.636Z,174.67
2018-12-03T10:30:52.462Z,161.13
2018-12-03T10:33:29.816Z,173.90
2018-12-03T10:35:58.883Z,165.97
2018-12-03T10:38:32.529Z,173.13
2018-12-03T10:41:05.792Z,159.57
2018-12-03T10:43:33.866Z,191.00
2018-12-03T10:46:01.795Z,175.20
2018-12-03T10:48:29.741Z,172.73
2018-12-03T10:50:57.743Z,168.97
2018-12-03T10:53:29.985Z,178.33
2018-12-03T10:55:58.031Z,170.00
2018-12-03T10:58:25.990Z,169.93
2018-12-03T11:01:05.533Z,176.57
2018-12-03T11:03:39.272Z,172.67
2018-12-03T11:06:13.040Z,159.93
2018-12-03T11:08:40.941Z,175.60
2018-12-03T11:11:08.905Z,161.20
2018-12-03T11:14:16.710Z,165.80
2018-12-03T11:16:46.823Z,163.13
2018-12-03T11:19:14.995Z,160.00
2018-12-03T11:21:43.328Z,162.00
2018-12-03T11:24:15.619Z,164.80
2018-12-03T11:26:47.227Z,160.60
2018-12-03T11:29:16.759Z,162.40
2018-12-03T11:31:44.987Z,160.77
2018-12-03T11:34:15.380Z,158.33
2018-12-03T11:36:47.792Z,159.93
2018-12-03T11:39:25.593Z,155.37
2018-12-03T11:42:01.871Z,162.40
2018-12-03T11:44:29.992Z,164.10
2018-12-03T11:46:58.238Z,155.83
2018-12-03T11:49:26.543Z,166.10
2018-12-03T11:51:54.454Z,162.53
2018-12-03T11:54:22.475Z,155.10
2018-12-03T11:56:50.380Z,151.50
2018-12-03T11:59:18.208Z,150.83
2018-12-03T12:01:46.366Z,156.17
2018-12-03T12:06:48.625Z,163.60
2018-12-03T12:09:20.995Z,176.87
2018-12-03T12:11:46.816Z,157.10
2018-12-03T12:14:27.633Z,161.93
2018-12-03T12:16:56.097Z,150.23
2018-12-03T12:19:24.268Z,159.90
2018-12-03T12:21:53.267Z,151.87
2018-12-03T12:24:21.602Z,157.50
2018-12-03T12:26:51.487Z,156.60
2018-12-03T12:29:19.355Z,153.57
2018-12-03T12:32:00.925Z,153.03
2018-12-03T12:34:39.907Z,161.40
2018-12-03T12:37:08.838Z,144.57
2018-12-03T12:39:36.763Z,146.77
2018-12-03T12:42:06.108Z,168.13
2018-12-03T12:44:34.252Z,150.50
2018-12-03T12:47:02.147Z,149.33
2018-12-03T12:49:30.255Z,162.73
2018-12-03T12:51:58.314Z,164.53
2018-12-03T12:54:26.271Z,146.03
2018-12-03T12:56:54.143Z,146.23
2018-12-03T12:59:22.296Z,141.20
2018-12-03T13:01:50.215Z,137.80
2018-12-03T13:04:18.094Z,142.03
2018-12-03T13:06:45.943Z,127.13
2018-12-03T13:09:13.807Z,128.27
2018-12-03T13:11:41.740Z,129.40
2018-12-03T13:14:12.120Z,126.27
2018-12-03T13:16:41.259Z,132.80
2018-12-03T13:19:09.764Z,131.00
2018-12-03T13:21:37.773Z,131.83
2018-12-03T13:24:06.591Z,129.80
2018-12-03T13:26:38.661Z,122.93
2018-12-03T13:29:08.200Z,124.20
2018-12-03T13:31:36.156Z,128.10
2018-12-03T13:34:05.751Z,126.17
2018-12-03T13:36:33.776Z,129.43
2018-12-03T13:39:01.618Z,125.50
2018-12-03T13:41:31.485Z,127.23
2018-12-03T13:44:00.572Z,128.40
2018-12-03T13:46:28.497Z,124.47
2018-12-03T13:48:56.521Z,132.10
2018-12-03T13:51:24.494Z,127.30
2018-12-03T13:53:52.399Z,131.37
2018-12-03T13:56:20.322Z,140.20
2018-12-03T13:58:48.340Z,139.73
2018-12-03T14:01:16.361Z,128.43
2018-12-03T14:03:44.520Z,133.27
2018-12-03T14:06:22.420Z,126.00
2018-12-03T14:09:07.712Z,136.67
2018-12-03T14:11:51.483Z,120.10
2018-12-03T14:15:06.870Z,122.40
2018-12-03T14:17:45.735Z,126.13
2018-12-03T14:20:13.915Z,122.53
2018-12-03T14:22:48.635Z,127.87
2018-12-03T14:25:17.565Z,125.90
2018-12-03T14:27:46.498Z,126.80
2018-12-03T14:30:14.773Z,130.97
2018-12-03T14:32:45.097Z,129.23
2018-12-03T14:35:14.555Z,127.30
2018-12-03T14:37:42.779Z,128.40
2018-12-03T14:40:11.907Z,130.37
2018-12-03T14:42:40.781Z,118.03
2018-12-03T14:45:11.616Z,126.13
2018-12-03T14:47:40.490Z,125.67
2018-12-03T14:50:09.947Z,125.87
2018-12-03T14:52:38.103Z,135.90
2018-12-03T14:55:07.191Z,128.53
2018-12-03T14:57:35.170Z,132.97
2018-12-03T15:00:04.944Z,140.03
2018-12-03T15:02:33.386Z,140.17
2018-12-03T15:05:01.299Z,135.37
2018-12-03T15:07:29.185Z,132.90
2018-12-03T15:09:57.383Z,137.07
2018-12-03T15:12:25.363Z,141.13
2018-12-03T15:14:53.307Z,144.63
2018-12-03T15:17:21.275Z,143.37
2018-12-03T15:19:49.804Z,145.40
2018-12-03T15:22:18.721Z,132.93
2018-12-03T15:24:47.539Z,132.13
2018-12-03T15:27:15.681Z,137.00
2018-12-03T15:29:43.715Z,139.33
2018-12-03T15:32:11.876Z,134.23
2018-12-03T15:34:39.795Z,136.53
2018-12-03T15:37:07.653Z,139.27
2018-12-03T15:42:16.494Z,148.57
2018-12-03T15:44:44.464Z,143.30
2018-12-03T15:47:12.315Z,137.17
2018-12-03T15:49:42.249Z,140.67
2018-12-03T15:52:10.460Z,143.43
2018-12-03T15:54:38.598Z,150.23
2018-12-03T15:57:06.436Z,131.17
2018-12-03T15:59:34.654Z,148.63
2018-12-03T16:02:02.757Z,137.20
2018-12-03T16:04:31.226Z,147.30
2018-12-03T16:06:59.130Z,132.53
2018-12-03T16:09:27.135Z,141.10
2018-12-03T16:11:55.055Z,137.67
2018-12-03T16:14:23.104Z,133.43
2018-12-03T16:16:51.763Z,139.50
2018-12-03T16:19:20.085Z,139.27
2018-12-03T16:21:48.171Z,146.07
2018-12-03T16:24:17.287Z,139.83
2018-12-03T16:26:45.384Z,140.30
2018-12-03T16:29:13.342Z,139.63
2018-12-03T16:31:41.978Z,143.13
2018-12-03T16:34:10.007Z,138.63
2018-12-03T16:36:38.276Z,142.10
2018-12-03T16:39:07.620Z,140.97
2018-12-03T16:41:36.599Z,142.33
2018-12-03T16:44:04.775Z,135.63
2018-12-03T16:46:32.665Z,145.67
2018-12-03T16:49:00.635Z,143.27
2018-12-03T16:51:28.664Z,143.87
2018-12-03T16:53:56.565Z,139.07
2018-12-03T16:56:24.528Z,143.43
2018-12-03T16:58:52.337Z,147.37
2018-12-03T17:01:20.701Z,150.87
2018-12-03T17:03:48.600Z,143.00
2018-12-03T17:06:16.510Z,146.80
2018-12-03T17:08:44.371Z,163.10
2018-12-03T17:11:12.318Z,147.13
2018-12-03T17:13:40.173Z,164.40
2018-12-03T17:16:08.109Z,146.10
2018-12-03T17:18:37.960Z,152.97
2018-12-03T17:21:23.948Z,146.40
2018-12-03T17:24:00.116Z,149.07
2018-12-03T17:26:28.790Z,141.93
2018-12-03T17:28:56.777Z,146.60
2018-12-03T17:31:24.695Z,143.23
2018-12-03T17:33:54.526Z,149.63
2018-12-03T17:36:22.538Z,139.70
2018-12-03T17:38:50.345Z,149.17
2018-12-03T17:41:18.664Z,147.87
2018-12-03T17:43:47.206Z,156.73
2018-12-03T17:46:15.003Z,141.30
2018-12-03T17:48:42.805Z,154.03
2018-12-03T17:51:10.751Z,146.13
2018-12-03T17:53:38.680Z,150.33
2018-12-03T17:56:06.504Z,146.70
2018-12-03T17:58:36.485Z,158.47
2018-12-03T18:01:04.635Z,142.60
2018-12-03T18:03:32.666Z,152.97
2018-12-03T18:06:00.705Z,145.17
2018-12-03T18:08:28.632Z,151.80
2018-12-03T18:10:56.732Z,140.97
2018-12-03T18:13:24.587Z,152.10
2018-12-03T18:15:52.666Z,132.30
2018-12-03T18:18:20.517Z,152.50
2018-12-03T18:20:48.347Z,146.93
2018-12-03T18:23:16.618Z,156.47
2018-12-03T18:25:44.444Z,145.10
2018-12-03T18:28:12.450Z,163.17
2018-12-03T18:33:14.848Z,153.63
2018-12-03T18:35:42.940Z,141.93
2018-12-03T18:38:12.010Z,146.33
2018-12-03T18:40:39.961Z,147.43
2018-12-03T18:43:09.970Z,158.83
2018-12-03T18:45:38.103Z,149.67
2018-12-03T18:48:08.588Z,157.87
2018-12-03T18:50:47.058Z,158.17
2018-12-03T18:53:20.101Z,158.70
2018-12-03T18:55:49.569Z,164.07
2018-12-03T18:58:32.993Z,154.97
2018-12-03T19:01:01.042Z,144.70
2018-12-03T19:03:28.990Z,159.70
2018-12-03T19:06:03.642Z,159.67
2018-12-03T19:08:32.693Z,165.60
2018-12-03T19:11:00.657Z,155.37
2018-12-03T19:13:28.520Z,157.77
2018-12-03T19:18:40.538Z,162.30
2018-12-03T19:21:08.808Z,151.03
2018-12-03T19:23:36.809Z,160.00
2018-12-03T19:26:05.088Z,154.43
2018-12-03T19:28:33.092Z,158.10
2018-12-03T19:31:01.169Z,141.53
2018-12-03T19:33:32.437Z,163.27
2018-12-03T19:36:19.646Z,157.20
2018-12-03T19:44:24.811Z,155.77
2018-12-03T19:46:53.089Z,147.03
2018-12-03T19:49:21.009Z,156.60
2018-12-03T19:51:49.716Z,153.53
2018-12-03T19:54:25.357Z,167.23
2018-12-03T19:56:53.490Z,155.63
2018-12-03T19:59:24.206Z,157.63
2018-12-03T20:01:54.086Z,162.73
2018-12-03T20:05:32.401Z,160.73
2018-12-03T20:08:03.259Z,171.43
2018-12-03T20:10:42.738Z,158.53
2018-12-03T20:13:17.537Z,171.27
2018-12-03T20:15:46.844Z,162.63
2018-12-03T20:21:07.145Z,166.63
2018-12-03T20:23:46.563Z,175.60
2018-12-03T20:32:41.167Z,167.47
2018-12-03T20:35:24.906Z,175.97
2018-12-03T20:38:40.324Z,164.53
2018-12-03T20:41:14.275Z,163.77
2018-12-03T20:43:42.571Z,179.93
2018-12-03T20:46:43.124Z,168.70
2018-12-03T20:49:33.536Z,160.03
2018-12-03T20:55:01.385Z,170.83
2018-12-03T20:57:29.313Z,172.40
2018-12-03T20:59:57.132Z,162.90
2018-12-03T21:02:26.518Z,165.23
2018-12-03T21:04:54.485Z,171.13
2018-12-03T21:07:26.990Z,169.33
2018-12-03T21:09:54.841Z,158.27
2018-12-03T21:12:22.725Z,170.83
2018-12-03T21:14:50.828Z,167.30
2018-12-03T21:17:19.768Z,182.73
2018-12-03T21:19:58.515Z,163.67
2018-12-03T21:22:26.448Z,164.23
2018-12-03T21:24:54.273Z,169.17
2018-12-03T21:27:22.999Z,174.17
2018-12-03T21:29:51.593Z,160.07
2018-12-03T21:32:19.414Z,166.97
2018-12-03T21:34:47.230Z,158.13
2018-12-03T21:37:15.084Z,167.37
2018-12-03T21:39:47.980Z,156.63
2018-12-03T21:42:13.259Z,168.43
2018-12-03T21:44:42.366Z,165.27
2018-12-03T21:47:10.496Z,169.97
2018-12-03T21:49:38.566Z,172.17
2018-12-03T21:52:06.537Z,164.70
2018-12-03T21:54:34.362Z,158.10
2018-12-03T21:57:02.410Z,176.17
2018-12-03T21:59:30.239Z,161.77
2018-12-03T22:01:58.064Z,162.50
2018-12-03T22:04:25.966Z,155.63
2018-12-03T22:06:53.968Z,161.10
2018-12-03T22:09:21.743Z,160.53
2018-12-03T22:11:50.137Z,152.27
2018-12-03T22:14:18.065Z,155.80
2018-12-03T22:16:45.972Z,157.87
2018-12-03T22:19:13.975Z,155.07
2018-12-03T22:21:41.847Z,153.37
2018-12-03T22:24:09.653Z,154.73
2018-12-03T22:26:37.688Z,153.60
2018-12-03T22:29:06.233Z,156.97
2018-12-03T22:31:34.177Z,162.67
2018-12-03T22:34:02.173Z,167.30
2018-12-03T22:36:30.219Z,159.97
2018-12-03T22:38:58.144Z,157.80
2018-12-03T22:41:26.253Z,158.90
2018-12-03T22:43:54.181Z,160.60
2018-12-03T22:46:22.041Z,157.77
2018-12-03T22:48:49.909Z,167.90
2018-12-03T22:51:18.345Z,150.87
2018-12-03T22:53:46.305Z,162.23
2018-12-03T22:56:14.307Z,156.40
2018-12-03T22:58:42.306Z,162.97
2018-12-03T23:01:12.589Z,160.27
2018-12-03T23:03:40.549Z,158.53
2018-12-03T23:06:08.433Z,159.70
2018-12-03T23:08:36.352Z,168.87
2018-12-03T23:11:05.021Z,158.23
2018-12-03T23:13:33.206Z,163.90
2018-12-03T23:16:01.498Z,160.83
2018-12-03T23:18:31.176Z,159.33
2018-12-03T23:20:59.138Z,158.53
2018-12-03T23:23:27.200Z,159.93
2018-12-03T23:25:55.208Z,151.37
2018-12-03T23:28:23.636Z,163.27
2018-12-03T23:30:51.584Z,160.67
2018-12-03T23:33:19.797Z,158.33
2018-12-03T23:35:47.660Z,149.97
2018-12-03T23:38:15.608Z,174.67
2018-12-03T23:40:43.575Z,160.67
2018-12-03T23:43:11.639Z,166.80
2018-12-03T23:45:39.450Z,152.00
2018-12-03T23:48:07.522Z,163.60
2018-12-03T23:50:35.700Z,151.70
2018-12-03T23:53:03.941Z,161.60
2018-12-03T23:55:32.248Z,158.87
2018-12-03T23:58:00.245Z,159.00
